createdAt,value
2023-03-28T00:01:49.116Z,99.90
2023-03-28T00:04:16.029Z,99.90
2023-03-28T00:06:45.482Z,99.90
2023-03-28T00:09:12.409Z,99.90
2023-03-28T00:11:39.654Z,99.90
2023-03-28T00:14:08.720Z,99.90
2023-03-28T00:16:36.739Z,99.90
2023-03-28T00:19:05.928Z,99.90
2023-03-28T00:21:33.852Z,99.90
2023-03-28T00:24:02.403Z,99.90
2023-03-28T00:26:30.162Z,99.90
2023-03-28T00:28:57.497Z,99.90
2023-03-28T00:31:25.036Z,99.90
2023-03-28T00:33:52.244Z,99.90
2023-03-28T00:36:22.888Z,99.90
2023-03-28T00:38:50.119Z,99.90
2023-03-28T00:41:18.479Z,99.90
2023-03-28T00:43:46.656Z,99.90
2023-03-28T00:46:16.579Z,99.90
2023-03-28T00:48:46.170Z,99.90
2023-03-28T00:51:14.780Z,99.90
2023-03-28T00:53:42.415Z,99.90
2023-03-28T00:56:09.668Z,99.90
2023-03-28T00:58:38.311Z,99.90
2023-03-28T01:01:05.602Z,99.90
2023-03-28T01:03:33.751Z,99.90
2023-03-28T01:06:04.529Z,99.90
2023-03-28T01:08:38.631Z,99.90
2023-03-28T01:11:05.600Z,99.90
2023-03-28T01:13:34.317Z,99.90
2023-03-28T01:16:02.745Z,99.90
2023-03-28T01:18:34.784Z,99.90
2023-03-28T01:21:02.183Z,99.90
2023-03-28T01:23:47.950Z,99.90
2023-03-28T01:26:14.849Z,99.90
2023-03-28T01:28:51.160Z,99.90
2023-03-28T01:31:34.853Z,99.90
2023-03-28T01:34:13.841Z,99.90
2023-03-28T01:36:41.170Z,99.90
2023-03-28T01:39:10.966Z,99.90
2023-03-28T01:41:44.082Z,99.90
2023-03-28T01:44:20.042Z,99.90
2023-03-28T01:46:56.358Z,99.90
2023-03-28T01:49:26.750Z,99.90
2023-03-28T01:51:56.438Z,99.90
2023-03-28T01:54:23.412Z,99.90
2023-03-28T01:56:59.623Z,99.90
2023-03-28T01:59:37.398Z,99.90
2023-03-28T02:02:28.482Z,99.90
2023-03-28T02:04:59.860Z,99.90
2023-03-28T02:07:27.281Z,99.90
2023-03-28T02:10:09.467Z,99.90
2023-03-28T02:13:07.577Z,99.90
2023-03-28T02:15:57.721Z,99.90
2023-03-28T02:18:57.083Z,99.90
2023-03-28T02:21:41.387Z,99.90
2023-03-28T02:24:34.479Z,99.90
2023-03-28T02:27:12.582Z,99.90
2023-03-28T02:29:54.604Z,99.90
2023-03-28T02:32:38.368Z,99.90
2023-03-28T02:35:05.575Z,99.90
2023-03-28T02:37:49.651Z,99.90
2023-03-28T02:40:28.229Z,99.90
2023-03-28T02:43:08.087Z,99.90
2023-03-28T02:45:50.871Z,99.90
2023-03-28T02:48:36.306Z,99.90
2023-03-28T02:51:10.191Z,99.90
2023-03-28T02:53:51.258Z,99.90
2023-03-28T02:56:22.657Z,99.90
2023-03-28T02:59:15.888Z,99.90
2023-03-28T03:01:43.168Z,99.90
2023-03-28T03:04:10.291Z,99.90
2023-03-28T03:06:37.358Z,99.90
2023-03-28T03:09:05.020Z,99.90
2023-03-28T03:11:32.185Z,99.90
2023-03-28T03:14:00.428Z,99.90
2023-03-28T03:16:29.413Z,99.90
2023-03-28T03:18:57.877Z,99.90
2023-03-28T03:21:25.297Z,99.90
2023-03-28T03:23:52.292Z,99.90
2023-03-28T03:26:19.235Z,99.90
2023-03-28T03:28:55.290Z,99.90
2023-03-28T03:31:26.602Z,99.90
2023-03-28T03:34:12.156Z,99.90
2023-03-28T03:36:44.706Z,99.90
2023-03-28T03:39:12.226Z,99.90
2023-03-28T03:41:39.313Z,99.90
2023-03-28T03:44:06.620Z,99.90
2023-03-28T03:46:33.852Z,99.90
2023-03-28T03:49:02.034Z,99.90
2023-03-28T03:51:28.919Z,99.90
2023-03-28T03:53:59.993Z,99.90
2023-03-28T03:56:53.215Z,99.90
2023-03-28T03:59:20.986Z,99.90
2023-03-28T04:01:49.005Z,99.90
2023-03-28T04:04:37.049Z,99.90
2023-03-28T04:07:16.549Z,99.90
2023-03-28T04:09:46.170Z,99.90
2023-03-28T04:12:13.711Z,99.90
2023-03-28T04:14:49.260Z,99.90
2023-03-28T04:17:45.476Z,99.90
2023-03-28T04:20:16.659Z,99.90
2023-03-28T04:23:08.548Z,99.90
2023-03-28T04:25:37.154Z,99.90
2023-03-28T04:28:09.777Z,99.90
2023-03-28T04:30:43.901Z,99.90
2023-03-28T04:33:34.236Z,99.90
2023-03-28T04:36:04.527Z,99.90
2023-03-28T04:38:32.644Z,99.90
2023-03-28T04:41:13.731Z,99.90
2023-03-28T04:44:09.744Z,99.90
2023-03-28T04:46:43.914Z,99.90
2023-03-28T04:49:14.229Z,99.90
2023-03-28T04:51:41.028Z,99.90
2023-03-28T04:54:08.069Z,99.90
2023-03-28T04:56:55.735Z,99.90
2023-03-28T04:59:36.380Z,99.90
2023-03-28T05:02:03.966Z,99.90
2023-03-28T05:04:57.128Z,99.90
2023-03-28T05:07:24.051Z,99.90
2023-03-28T05:09:51.350Z,99.90
2023-03-28T05:12:18.226Z,99.90
2023-03-28T05:15:02.633Z,99.90
2023-03-28T05:17:31.606Z,99.90
2023-03-28T05:20:21.705Z,99.90
2023-03-28T05:22:52.491Z,99.90
2023-03-28T05:25:19.615Z,99.90
2023-03-28T05:27:46.648Z,99.90
2023-03-28T05:30:13.787Z,99.90
2023-03-28T05:32:40.963Z,99.90
2023-03-28T05:35:11.444Z,99.90
2023-03-28T05:37:42.125Z,99.90
2023-03-28T05:40:11.188Z,99.90
2023-03-28T05:42:40.390Z,99.90
2023-03-28T05:45:15.803Z,99.90
2023-03-28T05:47:42.717Z,99.90
2023-03-28T05:50:11.104Z,99.90
2023-03-28T05:52:38.752Z,99.90
2023-03-28T05:55:07.095Z,99.90
2023-03-28T05:57:34.760Z,99.90
2023-03-28T06:00:10.644Z,99.90
2023-03-28T06:02:45.084Z,99.90
2023-03-28T06:05:13.901Z,99.90
2023-03-28T06:07:43.219Z,99.90
2023-03-28T06:10:14.148Z,99.90
2023-03-28T06:12:45.977Z,99.90
2023-03-28T06:15:12.952Z,99.90
2023-03-28T06:17:43.851Z,99.90
2023-03-28T06:20:11.045Z,99.90
2023-03-28T06:22:38.500Z,99.90
2023-03-28T06:25:11.014Z,99.90
2023-03-28T06:27:38.110Z,99.90
2023-03-28T06:30:05.712Z,99.90
2023-03-28T06:32:40.067Z,99.90
2023-03-28T06:35:07.459Z,99.90
2023-03-28T06:37:34.425Z,99.90
2023-03-28T06:40:05.948Z,99.90
2023-03-28T06:42:32.835Z,99.90
2023-03-28T06:45:20.267Z,99.90
2023-03-28T06:48:03.588Z,99.90
2023-03-28T06:50:50.481Z,99.90
2023-03-28T06:53:19.999Z,99.90
2023-03-28T06:55:49.367Z,99.90
2023-03-28T06:58:16.829Z,99.90
2023-03-28T07:01:00.701Z,99.90
2023-03-28T07:03:36.822Z,99.90
2023-03-28T07:06:06.456Z,99.90
2023-03-28T07:08:33.612Z,99.90
2023-03-28T07:11:00.773Z,99.90
2023-03-28T07:13:28.539Z,99.90
2023-03-28T07:16:12.686Z,99.90
2023-03-28T07:18:40.643Z,99.90
2023-03-28T07:21:09.225Z,99.90
2023-03-28T07:23:36.535Z,99.90
2023-03-28T07:26:03.430Z,99.90
2023-03-28T07:28:30.346Z,99.90
2023-03-28T07:30:57.603Z,99.90
2023-03-28T07:33:33.250Z,99.90
2023-03-28T07:36:08.234Z,99.90
2023-03-28T07:38:36.723Z,99.90
2023-03-28T07:41:04.067Z,99.90
2023-03-28T07:43:31.404Z,99.90
2023-03-28T07:46:02.510Z,99.90
2023-03-28T07:48:30.003Z,99.90
2023-03-28T07:50:56.880Z,99.90
2023-03-28T07:53:23.957Z,99.90
2023-03-28T07:55:55.073Z,99.90
2023-03-28T07:58:29.398Z,99.90
2023-03-28T08:01:07.447Z,99.90
2023-03-28T08:03:44.666Z,99.90
2023-03-28T08:06:24.722Z,99.90
2023-03-28T08:08:56.471Z,99.90
2023-03-28T08:11:30.790Z,99.90
2023-03-28T08:13:58.219Z,99.90
2023-03-28T08:16:25.266Z,99.90
2023-03-28T08:19:03.961Z,99.90
2023-03-28T08:21:39.493Z,99.90
2023-03-28T08:24:07.849Z,99.90
2023-03-28T08:26:38.203Z,99.90
2023-03-28T08:29:05.227Z,99.90
2023-03-28T08:31:32.326Z,99.90
2023-03-28T08:34:07.099Z,99.80
2023-03-28T08:36:39.055Z,98.00
2023-03-28T08:39:12.125Z,97.70
2023-03-28T08:41:51.289Z,97.00
2023-03-28T08:44:18.562Z,93.70
2023-03-28T08:46:45.898Z,94.70
2023-03-28T08:49:17.627Z,94.70
2023-03-28T08:51:47.574Z,95.70
2023-03-28T08:54:16.623Z,96.60
2023-03-28T08:56:44.851Z,95.20
2023-03-28T08:59:13.503Z,93.80
2023-03-28T09:01:40.413Z,98.80
2023-03-28T09:04:07.550Z,88.40
2023-03-28T09:06:41.049Z,87.80
2023-03-28T09:09:13.158Z,91.20
2023-03-28T09:11:57.105Z,89.20
2023-03-28T09:14:39.296Z,88.40
2023-03-28T09:17:09.951Z,87.10
2023-03-28T09:19:47.762Z,85.70
2023-03-28T09:22:54.199Z,84.00
2023-03-28T09:25:29.676Z,90.00
2023-03-28T09:28:00.671Z,88.60
2023-03-28T09:30:29.598Z,79.50
2023-03-28T09:32:58.498Z,79.90
2023-03-28T09:35:25.939Z,84.20
2023-03-28T09:38:03.694Z,84.20
2023-03-28T09:40:32.147Z,79.00
2023-03-28T09:43:24.012Z,85.30
2023-03-28T09:46:13.622Z,79.60
2023-03-28T09:48:56.772Z,79.80
2023-03-28T09:51:26.762Z,76.30
2023-03-28T09:53:54.636Z,76.60
2023-03-28T09:56:28.639Z,75.00
2023-03-28T09:59:02.955Z,76.90
2023-03-28T10:01:45.712Z,71.80
2023-03-28T10:04:16.645Z,71.00
2023-03-28T10:07:13.652Z,71.40
2023-03-28T10:09:50.826Z,73.70
2023-03-28T10:12:38.578Z,68.40
2023-03-28T10:15:08.371Z,70.10
2023-03-28T10:18:13.257Z,67.00
2023-03-28T10:20:40.683Z,67.20
2023-03-28T10:23:07.852Z,67.60
2023-03-28T10:25:37.557Z,68.50
2023-03-28T10:28:05.410Z,71.40
2023-03-28T10:30:33.009Z,67.80
2023-03-28T10:33:18.973Z,69.40
2023-03-28T10:36:05.046Z,66.20
2023-03-28T10:38:45.229Z,66.60
2023-03-28T10:41:32.440Z,70.10
2023-03-28T10:44:19.038Z,65.90
2023-03-28T10:47:03.524Z,65.30
2023-03-28T10:49:40.977Z,66.40
2023-03-28T10:52:31.287Z,62.00
2023-03-28T10:55:02.039Z,63.50
2023-03-28T10:57:51.594Z,63.40
2023-03-28T11:00:20.016Z,63.30
2023-03-28T11:02:51.649Z,63.10
2023-03-28T11:05:34.966Z,65.10
2023-03-28T11:08:19.822Z,64.60
2023-03-28T11:10:59.380Z,62.00
2023-03-28T11:13:32.065Z,59.00
2023-03-28T11:16:03.935Z,58.90
2023-03-28T11:18:44.311Z,58.70
2023-03-28T11:21:24.753Z,60.50
2023-03-28T11:23:53.723Z,58.90
2023-03-28T11:26:41.949Z,55.80
2023-03-28T11:29:46.084Z,58.30
2023-03-28T11:32:18.071Z,56.50
2023-03-28T11:34:57.465Z,57.70
2023-03-28T11:37:28.153Z,61.50
2023-03-28T11:39:57.948Z,58.90
2023-03-28T11:42:43.242Z,55.50
2023-03-28T11:45:16.162Z,52.60
2023-03-28T11:47:47.672Z,51.90
2023-03-28T11:50:18.186Z,48.50
2023-03-28T11:53:06.781Z,49.00
2023-03-28T11:55:41.654Z,52.00
2023-03-28T11:58:28.486Z,50.50
2023-03-28T12:00:58.746Z,51.70
2023-03-28T12:03:29.335Z,51.30
2023-03-28T12:06:06.126Z,48.90
2023-03-28T12:08:39.484Z,53.60
2023-03-28T12:11:07.573Z,46.60
2023-03-28T12:13:55.638Z,45.70
2023-03-28T12:16:34.698Z,45.80
2023-03-28T12:19:02.816Z,44.90
2023-03-28T12:21:52.636Z,46.50
2023-03-28T12:24:35.872Z,45.50
2023-03-28T12:27:07.862Z,42.40
2023-03-28T12:29:44.284Z,41.70
2023-03-28T12:32:15.234Z,39.40
2023-03-28T12:34:43.673Z,36.10
2023-03-28T12:37:25.154Z,37.50
2023-03-28T12:40:08.345Z,39.00
2023-03-28T12:42:36.832Z,35.90
2023-03-28T12:45:04.244Z,36.00
2023-03-28T12:47:35.988Z,37.10
2023-03-28T12:50:07.847Z,36.20
2023-03-28T12:52:35.317Z,36.50
2023-03-28T12:55:08.065Z,36.60
2023-03-28T12:57:46.347Z,39.60
2023-03-28T13:00:47.920Z,41.00
2023-03-28T13:04:06.245Z,40.80
2023-03-28T13:06:49.011Z,41.50
2023-03-28T13:09:24.394Z,40.30
2023-03-28T13:11:51.903Z,42.00
2023-03-28T13:14:30.345Z,40.00
2023-03-28T13:17:04.367Z,36.40
2023-03-28T13:19:37.693Z,38.70
2023-03-28T13:22:04.675Z,38.30
2023-03-28T13:24:32.362Z,40.50
2023-03-28T13:27:19.495Z,40.90
2023-03-28T13:29:47.616Z,40.60
2023-03-28T13:32:15.419Z,38.30
2023-03-28T13:35:08.885Z,35.20
2023-03-28T13:37:46.680Z,34.20
2023-03-28T13:40:32.380Z,37.00
2023-03-28T13:42:59.486Z,31.90
2023-03-28T13:45:26.566Z,29.90
2023-03-28T13:48:06.146Z,31.50
2023-03-28T13:50:39.307Z,31.00
2023-03-28T13:53:06.394Z,31.80
2023-03-28T13:55:33.190Z,31.20
2023-03-28T13:58:03.206Z,32.60
2023-03-28T14:00:31.068Z,30.10
2023-03-28T14:03:04.658Z,30.40
2023-03-28T14:05:32.506Z,29.70
2023-03-28T14:08:18.734Z,30.60
2023-03-28T14:10:45.891Z,32.60
2023-03-28T14:13:19.700Z,31.50
2023-03-28T14:15:46.644Z,30.80
2023-03-28T14:18:16.132Z,33.20
2023-03-28T14:20:43.854Z,34.90
2023-03-28T14:23:17.112Z,34.70
2023-03-28T14:25:43.951Z,36.30
2023-03-28T14:28:13.996Z,36.30
2023-03-28T14:30:41.165Z,37.40
2023-03-28T14:33:13.539Z,38.90
2023-03-28T14:35:46.181Z,37.50
2023-03-28T14:38:14.105Z,37.00
2023-03-28T14:40:41.478Z,39.10
2023-03-28T14:43:13.196Z,39.60
2023-03-28T14:45:44.764Z,40.50
2023-03-28T14:48:13.724Z,38.20
2023-03-28T14:50:40.940Z,38.10
2023-03-28T14:53:09.575Z,37.60
2023-03-28T14:55:39.123Z,38.40
2023-03-28T14:58:06.099Z,39.10
2023-03-28T15:00:36.730Z,41.40
2023-03-28T15:03:04.879Z,42.50
2023-03-28T15:05:31.906Z,43.10
2023-03-28T15:08:02.094Z,44.20
2023-03-28T15:10:29.098Z,44.40
2023-03-28T15:13:11.662Z,44.50
2023-03-28T15:15:41.787Z,44.80
2023-03-28T15:18:11.384Z,45.90
2023-03-28T15:20:38.344Z,45.60
2023-03-28T15:23:06.733Z,45.20
2023-03-28T15:25:34.232Z,46.00
2023-03-28T15:28:01.817Z,45.90
2023-03-28T15:30:29.762Z,48.20
2023-03-28T15:33:00.995Z,46.70
2023-03-28T15:35:27.802Z,48.00
2023-03-28T15:38:01.762Z,47.20
2023-03-28T15:40:29.848Z,48.60
2023-03-28T15:42:56.990Z,48.70
2023-03-28T15:45:28.550Z,49.40
2023-03-28T15:47:55.846Z,50.00
2023-03-28T15:50:27.139Z,49.20
2023-03-28T15:52:57.668Z,50.50
2023-03-28T15:55:27.309Z,49.30
2023-03-28T15:57:54.737Z,48.90
2023-03-28T16:00:34.031Z,48.70
2023-03-28T16:03:20.670Z,48.40
2023-03-28T16:05:48.804Z,49.00
2023-03-28T16:08:20.504Z,48.90
2023-03-28T16:10:47.434Z,48.80
2023-03-28T16:13:32.992Z,49.00
2023-03-28T16:16:26.715Z,48.50
2023-03-28T16:19:02.787Z,49.60
2023-03-28T16:21:40.190Z,49.00
2023-03-28T16:24:07.111Z,49.90
2023-03-28T16:26:40.258Z,48.70
2023-03-28T16:29:07.911Z,51.00
2023-03-28T16:31:35.028Z,50.20
2023-03-28T16:34:02.097Z,50.60
2023-03-28T16:36:34.992Z,50.80
2023-03-28T16:39:02.008Z,51.80
2023-03-28T16:41:29.094Z,52.50
2023-03-28T16:43:56.096Z,53.40
2023-03-28T16:46:25.580Z,52.90
2023-03-28T16:48:52.548Z,53.10
2023-03-28T16:51:19.702Z,53.40
2023-03-28T16:53:46.734Z,52.80
2023-03-28T16:56:15.474Z,53.10
2023-03-28T16:58:42.681Z,53.60
2023-03-28T17:01:12.610Z,54.60
2023-03-28T17:03:39.588Z,53.80
2023-03-28T17:06:08.165Z,53.50
2023-03-28T17:08:35.575Z,54.00
2023-03-28T17:11:02.566Z,54.30
2023-03-28T17:13:29.871Z,54.70
2023-03-28T17:15:56.927Z,54.40
2023-03-28T17:18:24.075Z,54.80
2023-03-28T17:21:01.394Z,55.00
2023-03-28T17:23:28.308Z,55.90
2023-03-28T17:25:56.096Z,55.30
2023-03-28T17:28:23.950Z,55.80
2023-03-28T17:30:51.432Z,56.40
2023-03-28T17:33:18.649Z,56.10
2023-03-28T17:35:46.063Z,56.00
2023-03-28T17:38:12.951Z,56.70
2023-03-28T17:40:41.052Z,57.00
2023-03-28T17:43:08.480Z,58.00
2023-03-28T17:45:36.345Z,59.00
2023-03-28T17:48:03.894Z,58.40
2023-03-28T17:50:30.777Z,59.20
2023-03-28T17:52:57.655Z,59.80
2023-03-28T17:55:24.648Z,60.30
2023-03-28T17:57:51.691Z,59.50
2023-03-28T18:00:19.147Z,61.70
2023-03-28T18:02:46.725Z,62.10
2023-03-28T18:05:36.294Z,62.10
2023-03-28T18:08:03.324Z,63.60
2023-03-28T18:10:30.325Z,62.60
2023-03-28T18:12:57.258Z,63.90
2023-03-28T18:15:24.468Z,64.30
2023-03-28T18:17:51.556Z,63.30
2023-03-28T18:20:18.780Z,64.50
2023-03-28T18:22:46.377Z,65.50
2023-03-28T18:25:13.305Z,65.20
2023-03-28T18:27:40.160Z,67.00
2023-03-28T18:30:08.463Z,67.00
2023-03-28T18:32:35.960Z,68.40
2023-03-28T18:35:07.038Z,67.30
2023-03-28T18:37:34.192Z,68.20
2023-03-28T18:40:01.821Z,67.00
2023-03-28T18:42:30.111Z,67.00
2023-03-28T18:44:58.062Z,67.70
2023-03-28T18:47:25.416Z,67.40
2023-03-28T18:49:52.487Z,68.50
2023-03-28T18:52:20.161Z,68.00
2023-03-28T18:54:48.104Z,68.80
2023-03-28T18:57:16.111Z,68.30
2023-03-28T18:59:43.267Z,70.90
2023-03-28T19:02:11.989Z,70.90
2023-03-28T19:04:39.716Z,71.50
2023-03-28T19:07:06.615Z,72.80
2023-03-28T19:09:33.518Z,72.20
2023-03-28T19:12:01.372Z,73.90
2023-03-28T19:14:28.503Z,76.90
2023-03-28T19:16:55.553Z,76.10
2023-03-28T19:19:23.301Z,76.70
2023-03-28T19:21:51.797Z,78.40
2023-03-28T19:24:21.308Z,77.40
2023-03-28T19:26:48.757Z,80.40
2023-03-28T19:29:16.189Z,81.80
2023-03-28T19:31:43.150Z,82.80
2023-03-28T19:34:19.449Z,80.10
2023-03-28T19:36:46.448Z,81.30
2023-03-28T19:39:13.783Z,81.90
2023-03-28T19:41:41.297Z,84.10
2023-03-28T19:44:08.493Z,84.20
2023-03-28T19:46:38.481Z,84.50
2023-03-28T19:49:06.520Z,85.70
2023-03-28T19:51:33.857Z,88.80
2023-03-28T19:54:01.215Z,86.50
2023-03-28T19:56:28.160Z,89.50
2023-03-28T19:58:55.140Z,89.10
2023-03-28T20:01:22.221Z,89.70
2023-03-28T20:03:53.017Z,91.50
2023-03-28T20:06:21.313Z,91.80
2023-03-28T20:08:48.443Z,92.10
2023-03-28T20:11:15.481Z,90.40
2023-03-28T20:13:42.622Z,90.00
2023-03-28T20:16:09.945Z,90.20
2023-03-28T20:18:37.402Z,91.40
2023-03-28T20:21:05.610Z,91.90
2023-03-28T20:23:33.265Z,91.40
2023-03-28T20:26:01.719Z,91.90
2023-03-28T20:28:32.625Z,91.60
2023-03-28T20:30:59.869Z,92.70
2023-03-28T20:33:27.088Z,91.00
2023-03-28T20:35:54.636Z,92.10
2023-03-28T20:38:21.800Z,91.40
2023-03-28T20:40:48.651Z,91.30
2023-03-28T20:43:21.539Z,92.10
2023-03-28T20:45:49.917Z,91.10
2023-03-28T20:48:17.258Z,91.30
2023-03-28T20:50:46.000Z,91.40
2023-03-28T20:53:13.432Z,91.10
2023-03-28T20:55:40.585Z,92.00
2023-03-28T20:58:08.965Z,91.30
2023-03-28T21:00:36.159Z,91.70
2023-03-28T21:03:04.047Z,93.50
2023-03-28T21:05:31.847Z,91.70
2023-03-28T21:07:59.287Z,91.80
2023-03-28T21:10:28.067Z,92.40
2023-03-28T21:12:54.860Z,94.80
2023-03-28T21:15:24.424Z,93.80
2023-03-28T21:17:53.731Z,94.00
2023-03-28T21:20:21.006Z,92.90
2023-03-28T21:22:47.907Z,94.40
2023-03-28T21:25:15.382Z,94.50
2023-03-28T21:27:42.301Z,94.80
2023-03-28T21:30:11.705Z,95.60
2023-03-28T21:32:38.749Z,95.70
2023-03-28T21:35:06.065Z,95.00
2023-03-28T21:37:33.009Z,95.10
2023-03-28T21:40:00.052Z,95.90
2023-03-28T21:42:34.994Z,95.90
2023-03-28T21:45:02.196Z,97.00
2023-03-28T21:47:29.128Z,97.00
2023-03-28T21:49:56.460Z,97.00
2023-03-28T21:52:23.297Z,97.50
2023-03-28T21:54:51.008Z,98.20
2023-03-28T21:57:17.923Z,99.90
2023-03-28T21:59:46.418Z,99.90
2023-03-28T22:02:13.815Z,99.90
2023-03-28T22:04:43.009Z,99.90
2023-03-28T22:07:10.096Z,99.90
2023-03-28T22:09:39.253Z,99.90
2023-03-28T22:12:06.716Z,99.90
2023-03-28T22:14:34.000Z,99.90
2023-03-28T22:17:01.012Z,99.90
2023-03-28T22:19:30.076Z,99.90
2023-03-28T22:22:00.842Z,99.90
2023-03-28T22:24:28.212Z,99.90
2023-03-28T22:26:55.749Z,99.90
2023-03-28T22:29:22.956Z,99.90
2023-03-28T22:31:50.021Z,99.90
2023-03-28T22:34:17.757Z,99.90
2023-03-28T22:36:44.731Z,99.90
2023-03-28T22:39:12.346Z,99.90
2023-03-28T22:41:44.985Z,99.90
2023-03-28T22:44:12.792Z,99.90
2023-03-28T22:46:41.281Z,99.90
2023-03-28T22:49:10.252Z,99.90
2023-03-28T22:51:46.322Z,99.90
2023-03-28T22:54:25.156Z,99.90
2023-03-28T22:56:52.164Z,99.90
2023-03-28T22:59:19.446Z,99.90
2023-03-28T23:01:46.573Z,99.90
2023-03-28T23:04:15.873Z,99.90
2023-03-28T23:06:43.641Z,99.90
2023-03-28T23:09:12.836Z,99.90
2023-03-28T23:11:40.087Z,99.90
2023-03-28T23:14:07.862Z,99.90
2023-03-28T23:16:35.143Z,99.90
2023-03-28T23:19:02.994Z,99.90
2023-03-28T23:21:31.044Z,99.90
2023-03-28T23:23:57.991Z,99.90
2023-03-28T23:26:24.937Z,99.90
2023-03-28T23:28:51.824Z,99.90
2023-03-28T23:31:19.005Z,99.90
2023-03-28T23:33:46.492Z,99.90
2023-03-28T23:36:21.001Z,99.90
2023-03-28T23:38:48.426Z,99.90
2023-03-28T23:41:15.775Z,99.90
2023-03-28T23:43:42.786Z,99.90
2023-03-28T23:46:09.699Z,99.90
2023-03-28T23:48:36.741Z,99.90
2023-03-28T23:51:04.562Z,99.90
2023-03-28T23:53:31.588Z,99.90
2023-03-28T23:55:58.668Z,99.90
2023-03-28T23:58:25.898Z,99.90
